Disclaimer

Please do not use the information listed here in-flight or in-navigation, as they are not provided to us by the airports but are provided by volunteers, so they might be outdated.

Search


Regions


Airport information page

Radio informations:
SAO LUIS TWR - 118.7 MHz
SAO LUIS OPS - 122.05 MHz
SAO LUIS APP - 119.1 MHz

Airport informations:
Latitude: 02° 35' 07.30" S
Longitude: 044° 14' 02.90" W
Elevation: 178 feet - 54 meters
Operating hours: 24 hour operations
Operating agency: Civil government, landing fees and diplomatic clearance may be required
Timezone: UTC-3(-2DT)
Fuel: Jet A1, without icing nhibitor.

100/130 octane gasoline, leaded, MIL-L-5572F (GREEN)

Runway information:
06/24 - 7850 x 148 feet< - >2393 x 45 meters
09/27 - 4867 x 135 feet< - >1483 x 41 meters

Recent METARs:
SBSL 190200Z 04005KT 9999 FEW017 27/24 Q1011
SBSL 190200Z 04005KT 9999 FEW017 27/24 Q1011
SBSL 190300Z 04005KT 9999 SCT017 26/24 Q1010

Airport on the map: